createdAt,value
2024-05-09T00:01:19.302Z,100666.45
2024-05-09T00:03:50.872Z,100663.07
2024-05-09T00:06:23.392Z,100662.12
2024-05-09T00:08:54.831Z,100661.52
2024-05-09T00:11:25.126Z,100663.13
2024-05-09T00:13:57.043Z,100662.50
2024-05-09T00:16:27.448Z,100665.48
2024-05-09T00:18:59.535Z,100661.04
2024-05-09T00:21:29.812Z,100661.22
2024-05-09T00:24:01.390Z,100669.02
2024-05-09T00:26:31.726Z,100672.49
2024-05-09T00:29:03.396Z,100673.02
2024-05-09T00:31:33.606Z,100674.42
2024-05-09T00:34:05.449Z,100669.44
2024-05-09T00:36:36.230Z,100670.52
2024-05-09T00:39:07.944Z,100667.95
2024-05-09T00:41:38.128Z,100670.59
2024-05-09T00:44:09.824Z,100666.31
2024-05-09T00:46:40.142Z,100665.65
2024-05-09T00:49:11.961Z,100659.96
2024-05-09T00:51:42.225Z,100658.44
2024-05-09T00:54:14.606Z,100662.24
2024-05-09T00:56:44.814Z,100663.14
2024-05-09T00:59:16.630Z,100667.14
2024-05-09T01:01:46.931Z,100670.61
2024-05-09T01:04:18.865Z,100673.92
2024-05-09T01:06:49.188Z,100672.06
2024-05-09T01:09:20.715Z,100670.54
2024-05-09T01:11:51.475Z,100671.11
2024-05-09T01:14:23.467Z,100669.77
2024-05-09T01:16:53.873Z,100672.56
2024-05-09T01:19:28.931Z,100670.87
2024-05-09T01:22:00.548Z,100675.90
2024-05-09T01:24:30.912Z,100677.30
2024-05-09T01:27:02.437Z,100679.23
2024-05-09T01:29:32.990Z,100677.71
2024-05-09T01:32:05.116Z,100676.88
2024-05-09T01:34:35.658Z,100678.95
2024-05-09T01:37:07.107Z,100678.79
2024-05-09T01:39:37.574Z,100676.73
2024-05-09T01:42:09.191Z,100674.69
2024-05-09T01:44:40.019Z,100675.91
2024-05-09T01:47:11.502Z,100677.14
2024-05-09T01:49:42.178Z,100677.85
2024-05-09T01:52:14.176Z,100678.38
2024-05-09T01:54:45.096Z,100674.61
2024-05-09T01:57:16.662Z,100670.86
2024-05-09T01:59:47.084Z,100673.80
2024-05-09T02:02:18.836Z,100675.55
2024-05-09T02:04:50.229Z,100672.64
2024-05-09T02:07:22.307Z,100672.49
2024-05-09T02:09:53.332Z,100670.97
2024-05-09T02:12:24.942Z,100672.54
2024-05-09T02:14:55.556Z,100667.91
2024-05-09T02:17:27.257Z,100671.17
2024-05-09T02:19:57.905Z,100667.23
2024-05-09T02:22:29.298Z,100667.93
2024-05-09T02:24:59.749Z,100663.29
2024-05-09T02:27:31.523Z,100662.79
2024-05-09T02:30:01.931Z,100664.17
2024-05-09T02:32:33.721Z,100666.42
2024-05-09T02:35:04.407Z,100663.84
2024-05-09T02:37:36.080Z,100668.67
2024-05-09T02:40:09.144Z,100667.83
2024-05-09T02:42:43.251Z,100669.73
2024-05-09T02:45:13.916Z,100668.35
2024-05-09T02:47:45.499Z,100674.73
2024-05-09T02:50:23.043Z,100675.41
2024-05-09T02:53:02.159Z,100674.73
2024-05-09T02:55:33.256Z,100679.37
2024-05-09T02:58:05.211Z,100681.27
2024-05-09T03:00:39.741Z,100678.68
2024-05-09T03:03:15.753Z,100678.69
2024-05-09T03:05:49.804Z,100679.05
2024-05-09T03:08:20.190Z,100683.34
2024-05-09T03:10:51.980Z,100684.73
2024-05-09T03:13:22.078Z,100684.71
2024-05-09T03:15:53.781Z,100685.91
2024-05-09T03:18:24.056Z,100686.27
2024-05-09T03:20:55.956Z,100684.90
2024-05-09T03:23:26.193Z,100684.38
2024-05-09T03:25:57.879Z,100687.97
2024-05-09T03:28:28.206Z,100689.02
2024-05-09T03:30:59.796Z,100692.10
2024-05-09T03:33:30.707Z,100691.77
2024-05-09T03:36:02.935Z,100691.77
2024-05-09T03:38:41.938Z,100690.05
2024-05-09T03:41:13.955Z,100686.61
2024-05-09T03:43:44.412Z,100688.69
2024-05-09T03:46:16.179Z,100689.52
2024-05-09T03:48:46.580Z,100688.49
2024-05-09T03:51:19.036Z,100691.77
2024-05-09T03:53:49.396Z,100694.17
2024-05-09T03:56:21.146Z,100693.98
2024-05-09T03:58:51.619Z,100695.88
2024-05-09T04:01:25.498Z,100696.02
2024-05-09T04:03:56.310Z,100698.25
2024-05-09T04:06:28.195Z,100704.61
2024-05-09T04:08:58.905Z,100708.04
2024-05-09T04:11:30.592Z,100711.45
2024-05-09T04:14:00.970Z,100707.13
2024-05-09T04:16:32.870Z,100714.68
2024-05-09T04:19:03.536Z,100712.59
2024-05-09T04:21:35.348Z,100713.58
2024-05-09T04:24:05.887Z,100715.09
2024-05-09T04:26:37.401Z,100719.52
2024-05-09T04:29:08.072Z,100720.50
2024-05-09T04:31:39.928Z,100725.98
2024-05-09T04:34:10.448Z,100730.76
2024-05-09T04:36:44.554Z,100736.40
2024-05-09T04:39:14.990Z,100736.36
2024-05-09T04:41:46.357Z,100742.52
2024-05-09T04:44:16.733Z,100741.80
2024-05-09T04:46:48.429Z,100746.95
2024-05-09T04:49:19.005Z,100744.84
2024-05-09T04:51:50.526Z,100745.64
2024-05-09T04:54:29.896Z,100747.31
2024-05-09T04:57:09.483Z,100746.94
2024-05-09T04:59:39.933Z,100751.02
2024-05-09T05:02:11.757Z,100748.22
2024-05-09T05:04:42.569Z,100747.63
2024-05-09T05:07:14.804Z,100749.90
2024-05-09T05:09:45.222Z,100748.87
2024-05-09T05:12:36.378Z,100751.27
2024-05-09T05:15:08.066Z,100752.08
2024-05-09T05:17:38.708Z,100752.23
2024-05-09T05:20:15.071Z,100753.27
2024-05-09T05:22:48.049Z,100755.64
2024-05-09T05:25:18.694Z,100756.23
2024-05-09T05:27:50.458Z,100757.66
2024-05-09T05:30:25.277Z,100756.19
2024-05-09T05:33:01.071Z,100755.29
2024-05-09T05:35:31.874Z,100757.89
2024-05-09T05:38:03.789Z,100753.80
2024-05-09T05:40:37.197Z,100752.86
2024-05-09T05:43:15.834Z,100752.31
2024-05-09T05:45:48.334Z,100750.02
2024-05-09T05:48:19.287Z,100752.40
2024-05-09T05:50:51.129Z,100753.52
2024-05-09T05:53:22.085Z,100751.11
2024-05-09T05:55:53.757Z,100752.23
2024-05-09T05:58:24.348Z,100750.34
2024-05-09T06:00:56.054Z,100746.83
2024-05-09T06:03:26.827Z,100748.13
2024-05-09T06:06:02.127Z,100746.02
2024-05-09T06:08:35.075Z,100746.05
2024-05-09T06:11:05.627Z,100745.98
2024-05-09T06:13:37.462Z,100747.48
2024-05-09T06:16:07.781Z,100742.36
2024-05-09T06:18:40.677Z,100744.60
2024-05-09T06:21:11.061Z,100746.67
2024-05-09T06:23:49.016Z,100748.34
2024-05-09T06:26:21.127Z,100748.69
2024-05-09T06:28:51.660Z,100751.48
2024-05-09T06:31:24.257Z,100752.55
2024-05-09T06:33:55.231Z,100750.97
2024-05-09T06:36:27.262Z,100752.98
2024-05-09T06:38:57.716Z,100749.97
2024-05-09T06:41:30.065Z,100748.32
2024-05-09T06:44:01.653Z,100746.95
2024-05-09T06:46:33.682Z,100747.86
2024-05-09T06:49:08.533Z,100748.15
2024-05-09T06:51:43.198Z,100749.02
2024-05-09T06:54:15.908Z,100751.07
2024-05-09T06:56:46.458Z,100751.63
2024-05-09T06:59:18.228Z,100753.14
2024-05-09T07:01:48.683Z,100750.29
2024-05-09T07:04:20.273Z,100748.52
2024-05-09T07:06:51.243Z,100746.98
2024-05-09T07:09:23.293Z,100747.44
2024-05-09T07:11:53.964Z,100748.57
2024-05-09T07:14:25.754Z,100745.92
2024-05-09T07:16:56.984Z,100740.67
2024-05-09T07:19:28.802Z,100742.65
2024-05-09T07:22:00.244Z,100746.20
2024-05-09T07:24:32.090Z,100744.95
2024-05-09T07:27:05.425Z,100745.05
2024-05-09T07:29:38.516Z,100744.15
2024-05-09T07:32:09.449Z,100743.71
2024-05-09T07:34:41.412Z,100744.05
2024-05-09T07:37:13.016Z,100744.19
2024-05-09T07:39:44.588Z,100746.07
2024-05-09T07:42:14.846Z,100743.52
2024-05-09T07:44:46.473Z,100741.77
2024-05-09T07:48:28.949Z,100736.08
2024-05-09T07:53:34.366Z,100729.80
2024-05-09T07:55:36.010Z,100728.59
2024-05-09T07:58:06.670Z,100723.89
2024-05-09T08:00:38.378Z,100725.80
2024-05-09T08:03:10.260Z,100727.70
2024-05-09T08:05:41.902Z,100731.62
2024-05-09T08:08:12.524Z,100729.85
2024-05-09T08:10:44.040Z,100729.83
2024-05-09T08:13:14.606Z,100729.88
2024-05-09T08:15:46.206Z,100732.40
2024-05-09T08:18:17.041Z,100728.30
2024-05-09T08:20:49.138Z,100728.25
2024-05-09T08:23:19.605Z,100730.34
2024-05-09T08:25:51.136Z,100728.04
2024-05-09T08:28:21.641Z,100727.70
2024-05-09T08:30:53.640Z,100726.73
2024-05-09T08:33:24.145Z,100721.60
2024-05-09T08:35:58.797Z,100720.05
2024-05-09T08:38:29.057Z,100723.95
2024-05-09T08:41:01.602Z,100719.73
2024-05-09T08:43:32.156Z,100718.90
2024-05-09T08:46:04.126Z,100720.83
2024-05-09T08:48:36.170Z,100721.85
2024-05-09T08:51:08.074Z,100719.88
2024-05-09T08:53:38.534Z,100719.66
2024-05-09T08:56:10.184Z,100722.02
2024-05-09T08:58:40.529Z,100722.38
2024-05-09T09:01:12.252Z,100723.54
2024-05-09T09:03:43.145Z,100724.83
2024-05-09T09:06:15.456Z,100725.73
2024-05-09T09:08:45.806Z,100728.16
2024-05-09T09:11:17.783Z,100726.52
2024-05-09T09:13:48.218Z,100722.85
2024-05-09T09:16:20.097Z,100723.54
2024-05-09T09:18:51.372Z,100718.31
2024-05-09T09:21:23.016Z,100717.92
2024-05-09T09:23:53.589Z,100725.17
2024-05-09T09:26:25.647Z,100728.98
2024-05-09T09:28:59.756Z,100726.61
2024-05-09T09:31:31.872Z,100726.27
2024-05-09T09:34:06.141Z,100728.89
2024-05-09T09:36:38.911Z,100720.92
2024-05-09T09:39:09.878Z,100722.05
2024-05-09T09:41:41.837Z,100718.67
2024-05-09T09:44:12.020Z,100718.97
2024-05-09T09:46:44.319Z,100716.34
2024-05-09T09:49:14.958Z,100718.05
2024-05-09T09:51:46.971Z,100714.17
2024-05-09T09:54:18.271Z,100712.18
2024-05-09T09:56:50.318Z,100709.11
2024-05-09T09:59:20.666Z,100705.02
2024-05-09T10:01:52.497Z,100704.02
2024-05-09T10:04:23.359Z,100702.40
2024-05-09T10:06:58.567Z,100703.48
2024-05-09T10:09:31.528Z,100701.16
2024-05-09T10:12:11.826Z,100699.58
2024-05-09T10:14:46.467Z,100693.67
2024-05-09T10:17:19.207Z,100691.46
2024-05-09T10:19:49.939Z,100686.47
2024-05-09T10:22:28.684Z,100689.23
2024-05-09T10:25:10.437Z,100691.58
2024-05-09T10:27:42.211Z,100686.24
2024-05-09T10:30:26.005Z,100683.93
2024-05-09T10:33:02.425Z,100686.84
2024-05-09T10:35:33.057Z,100684.16
2024-05-09T10:38:07.712Z,100683.84
2024-05-09T10:40:40.533Z,100680.38
2024-05-09T10:43:16.345Z,100675.20
2024-05-09T10:45:49.304Z,100673.11
2024-05-09T10:48:19.826Z,100669.46
2024-05-09T10:50:51.705Z,100665.86
2024-05-09T10:53:23.370Z,100665.52
2024-05-09T10:56:01.331Z,100665.77
2024-05-09T10:58:33.024Z,100660.45
2024-05-09T11:01:06.779Z,100662.90
2024-05-09T11:03:39.900Z,100662.48
2024-05-09T11:06:11.464Z,100660.71
2024-05-09T11:08:44.157Z,100657.16
2024-05-09T11:11:14.587Z,100657.32
2024-05-09T11:13:46.454Z,100654.89
2024-05-09T11:16:19.761Z,100648.48
2024-05-09T11:18:56.155Z,100642.73
2024-05-09T11:21:28.322Z,100640.70
2024-05-09T11:23:59.006Z,100644.67
2024-05-09T11:26:33.832Z,100648.13
2024-05-09T11:29:06.635Z,100643.69
2024-05-09T11:31:46.879Z,100642.53
2024-05-09T11:34:19.327Z,100639.76
2024-05-09T11:36:50.013Z,100642.94
2024-05-09T11:39:21.955Z,100634.11
2024-05-09T11:41:52.916Z,100633.48
2024-05-09T11:44:24.750Z,100635.21
2024-05-09T11:46:55.674Z,100629.36
2024-05-09T11:49:27.710Z,100628.73
2024-05-09T11:51:58.138Z,100629.23
2024-05-09T11:54:29.847Z,100628.84
2024-05-09T11:57:00.387Z,100632.68
2024-05-09T11:59:32.736Z,100626.95
2024-05-09T12:02:03.547Z,100630.23
2024-05-09T12:04:35.606Z,100630.14
2024-05-09T12:07:07.302Z,100630.62
2024-05-09T12:09:40.265Z,100626.29
2024-05-09T12:12:10.803Z,100628.55
2024-05-09T12:14:43.048Z,100626.17
2024-05-09T12:17:13.661Z,100626.15
2024-05-09T12:19:45.849Z,100617.50
2024-05-09T12:22:16.589Z,100615.17
2024-05-09T12:24:48.365Z,100615.39
2024-05-09T12:27:18.790Z,100610.19
2024-05-09T12:29:50.858Z,100605.70
2024-05-09T12:32:21.395Z,100601.35
2024-05-09T12:34:53.354Z,100599.40
2024-05-09T12:37:24.188Z,100594.55
2024-05-09T12:39:55.852Z,100596.91
2024-05-09T12:42:28.094Z,100596.95
2024-05-09T12:45:00.622Z,100589.82
2024-05-09T12:47:31.290Z,100587.81
2024-05-09T12:50:03.817Z,100583.23
2024-05-09T12:52:34.311Z,100578.00
2024-05-09T12:55:06.318Z,100579.06
2024-05-09T12:57:36.827Z,100572.56
2024-05-09T13:00:14.222Z,100568.89
2024-05-09T13:02:53.610Z,100567.70
2024-05-09T13:05:24.531Z,100569.04
2024-05-09T13:07:56.803Z,100571.48
2024-05-09T13:10:32.171Z,100570.33
2024-05-09T13:13:05.240Z,100568.58
2024-05-09T13:15:36.936Z,100564.32
2024-05-09T13:18:08.704Z,100561.42
2024-05-09T13:20:39.306Z,100559.89
2024-05-09T13:23:10.879Z,100556.91
2024-05-09T13:25:41.705Z,100558.23
2024-05-09T13:28:13.248Z,100555.48
2024-05-09T13:30:43.963Z,100548.97
2024-05-09T13:33:15.918Z,100545.86
2024-05-09T13:35:50.155Z,100545.09
2024-05-09T13:38:22.582Z,100540.15
2024-05-09T13:40:53.340Z,100541.83
2024-05-09T13:43:25.556Z,100542.88
2024-05-09T13:45:57.647Z,100537.80
2024-05-09T13:48:29.387Z,100536.12
2024-05-09T13:51:00.000Z,100534.33
2024-05-09T13:53:31.850Z,100534.50
2024-05-09T13:56:02.384Z,100528.98
2024-05-09T13:58:34.351Z,100529.77
2024-05-09T14:01:05.015Z,100527.79
2024-05-09T14:03:37.329Z,100528.83
2024-05-09T14:06:11.261Z,100527.38
2024-05-09T14:08:44.666Z,100517.85
2024-05-09T14:11:15.673Z,100515.46
2024-05-09T14:13:47.668Z,100518.39
2024-05-09T14:16:18.120Z,100515.33
2024-05-09T14:18:50.409Z,100518.01
2024-05-09T14:21:20.778Z,100512.25
2024-05-09T14:23:52.355Z,100511.08
2024-05-09T14:26:23.792Z,100512.58
2024-05-09T14:28:55.346Z,100510.27
2024-05-09T14:31:26.108Z,100511.34
2024-05-09T14:33:58.050Z,100511.34
2024-05-09T14:36:29.153Z,100509.15
2024-05-09T14:39:00.843Z,100509.83
2024-05-09T14:41:31.003Z,100511.67
2024-05-09T14:44:02.730Z,100504.60
2024-05-09T14:46:33.092Z,100502.68
2024-05-09T14:49:05.107Z,100497.21
2024-05-09T14:51:35.927Z,100492.33
2024-05-09T14:54:07.701Z,100494.67
2024-05-09T14:56:37.929Z,100491.45
2024-05-09T14:59:09.791Z,100493.23
2024-05-09T15:01:40.504Z,100488.23
2024-05-09T15:04:12.338Z,100490.44
2024-05-09T15:06:42.918Z,100487.96
2024-05-09T15:09:14.758Z,100484.75
2024-05-09T15:11:46.529Z,100484.34
2024-05-09T15:14:18.110Z,100479.52
2024-05-09T15:16:48.842Z,100480.70
2024-05-09T15:19:20.874Z,100479.83
2024-05-09T15:21:51.336Z,100479.59
2024-05-09T15:24:23.165Z,100476.64
2024-05-09T15:26:53.389Z,100478.98
2024-05-09T15:29:26.283Z,100471.96
2024-05-09T15:31:56.761Z,100474.02
2024-05-09T15:34:30.370Z,100465.75
2024-05-09T15:37:01.173Z,100465.61
2024-05-09T15:39:33.138Z,100461.95
2024-05-09T15:42:03.731Z,100460.38
2024-05-09T15:44:36.057Z,100459.80
2024-05-09T15:47:06.427Z,100457.96
2024-05-09T15:49:38.368Z,100458.93
2024-05-09T15:52:08.947Z,100452.50
2024-05-09T15:54:40.794Z,100455.80
2024-05-09T15:57:11.196Z,100452.71
2024-05-09T15:59:42.850Z,100454.00
2024-05-09T16:02:13.912Z,100452.27
2024-05-09T16:04:46.079Z,100455.70
2024-05-09T16:07:16.425Z,100457.43
2024-05-09T16:09:48.155Z,100454.86
2024-05-09T16:12:18.870Z,100451.48
2024-05-09T16:14:51.152Z,100450.70
2024-05-09T16:17:21.635Z,100444.36
2024-05-09T16:19:53.393Z,100443.33
2024-05-09T16:22:23.900Z,100444.54
2024-05-09T16:24:55.785Z,100444.02
2024-05-09T16:27:26.421Z,100441.15
2024-05-09T16:30:03.993Z,100445.82
2024-05-09T16:32:37.226Z,100442.36
2024-05-09T16:35:07.589Z,100442.05
2024-05-09T16:37:39.449Z,100442.45
2024-05-09T16:40:21.687Z,100444.45
2024-05-09T16:43:03.400Z,100445.86
2024-05-09T16:45:34.298Z,100446.55
2024-05-09T16:48:06.924Z,100446.69
2024-05-09T16:50:37.615Z,100445.06
2024-05-09T16:53:09.429Z,100445.04
2024-05-09T16:55:40.063Z,100446.77
2024-05-09T16:58:12.559Z,100443.11
2024-05-09T17:00:44.275Z,100438.95
2024-05-09T17:03:17.282Z,100442.11
2024-05-09T17:05:48.706Z,100441.21
2024-05-09T17:08:20.433Z,100442.20
2024-05-09T17:10:51.517Z,100442.06
2024-05-09T17:13:23.778Z,100443.98
2024-05-09T17:15:54.501Z,100443.55
2024-05-09T17:18:26.036Z,100444.84
2024-05-09T17:20:57.128Z,100440.25
2024-05-09T17:23:29.278Z,100438.88
2024-05-09T17:26:01.352Z,100436.98
2024-05-09T17:28:33.257Z,100436.64
2024-05-09T17:31:03.960Z,100437.71
2024-05-09T17:33:36.063Z,100437.91
2024-05-09T17:36:06.746Z,100433.84
2024-05-09T17:38:38.705Z,100435.67
2024-05-09T17:41:09.344Z,100432.09
2024-05-09T17:43:40.995Z,100429.60
2024-05-09T17:46:11.646Z,100428.09
2024-05-09T17:48:43.759Z,100429.59
2024-05-09T17:51:14.428Z,100430.23
2024-05-09T17:53:48.066Z,100428.64
2024-05-09T17:56:19.076Z,100431.95
2024-05-09T17:58:50.666Z,100431.83
2024-05-09T18:01:21.681Z,100434.84
2024-05-09T18:03:54.852Z,100439.80
2024-05-09T18:06:25.589Z,100443.23
2024-05-09T18:08:57.362Z,100442.34
2024-05-09T18:11:28.089Z,100444.09
2024-05-09T18:13:59.932Z,100446.63
2024-05-09T18:16:30.389Z,100446.51
2024-05-09T18:19:02.243Z,100445.81
2024-05-09T18:21:33.138Z,100453.08
2024-05-09T18:24:05.125Z,100454.38
2024-05-09T18:26:35.225Z,100454.34
2024-05-09T18:29:07.326Z,100456.60
2024-05-09T18:31:37.905Z,100454.32
2024-05-09T18:34:13.186Z,100457.20
2024-05-09T18:36:46.807Z,100459.45
2024-05-09T18:39:17.613Z,100464.85
2024-05-09T18:41:49.093Z,100463.77
2024-05-09T18:44:19.324Z,100469.43
2024-05-09T18:46:51.773Z,100470.91
2024-05-09T18:49:22.299Z,100473.12
2024-05-09T18:51:53.975Z,100476.91
2024-05-09T18:54:24.371Z,100478.52
2024-05-09T18:56:56.336Z,100478.79
2024-05-09T18:59:26.898Z,100483.80
2024-05-09T19:01:58.753Z,100486.84
2024-05-09T19:04:29.630Z,100491.52
2024-05-09T19:07:02.684Z,100496.27
2024-05-09T19:09:33.290Z,100497.76
2024-05-09T19:12:06.612Z,100499.95
2024-05-09T19:14:37.006Z,100504.52
2024-05-09T19:17:09.442Z,100504.36
2024-05-09T19:19:40.066Z,100503.80
2024-05-09T19:22:11.880Z,100505.59
2024-05-09T19:24:42.274Z,100508.25
2024-05-09T19:27:14.046Z,100510.14
2024-05-09T19:29:44.373Z,100509.41
2024-05-09T19:32:15.853Z,100511.92
2024-05-09T19:34:46.251Z,100516.63
2024-05-09T19:37:17.971Z,100517.81
2024-05-09T19:39:48.882Z,100518.34
2024-05-09T19:42:20.583Z,100520.39
2024-05-09T19:44:51.046Z,100519.64
2024-05-09T19:47:22.860Z,100517.80
2024-05-09T19:49:53.365Z,100522.77
2024-05-09T19:52:24.965Z,100522.90
2024-05-09T19:54:55.323Z,100521.81
2024-05-09T19:57:26.752Z,100522.11
2024-05-09T19:59:57.173Z,100522.71
2024-05-09T20:02:29.069Z,100519.64
2024-05-09T20:04:59.868Z,100521.22
2024-05-09T20:07:34.272Z,100521.02
2024-05-09T20:10:13.259Z,100525.55
2024-05-09T20:12:48.799Z,100521.05
2024-05-09T20:15:19.715Z,100518.98
2024-05-09T20:17:51.804Z,100518.52
2024-05-09T20:20:32.653Z,100516.34
2024-05-09T20:23:10.665Z,100516.71
2024-05-09T20:25:41.567Z,100515.29
2024-05-09T20:28:12.997Z,100513.46
2024-05-09T20:30:44.078Z,100515.25
2024-05-09T20:33:15.742Z,100515.49
2024-05-09T20:35:46.266Z,100522.27
2024-05-09T20:38:17.824Z,100517.52
2024-05-09T20:40:48.536Z,100516.69
2024-05-09T20:43:20.738Z,100519.27
2024-05-09T20:45:51.792Z,100522.38
2024-05-09T20:48:24.753Z,100521.75
2024-05-09T20:50:55.204Z,100518.00
2024-05-09T20:53:27.008Z,100519.83
2024-05-09T20:55:57.440Z,100519.30
2024-05-09T20:58:30.170Z,100518.64
2024-05-09T21:01:00.937Z,100517.21
2024-05-09T21:03:33.407Z,100516.54
2024-05-09T21:06:04.086Z,100519.64
2024-05-09T21:08:36.248Z,100513.41
2024-05-09T21:11:06.979Z,100518.44
2024-05-09T21:13:38.479Z,100515.63
2024-05-09T21:16:09.355Z,100516.89
2024-05-09T21:18:41.304Z,100515.98
2024-05-09T21:21:11.815Z,100516.68
2024-05-09T21:23:43.516Z,100516.46
2024-05-09T21:26:14.662Z,100515.73
2024-05-09T21:28:46.134Z,100517.23
2024-05-09T21:31:16.824Z,100516.40
2024-05-09T21:33:48.616Z,100516.60
2024-05-09T21:36:18.752Z,100515.41
2024-05-09T21:38:50.675Z,100513.06
2024-05-09T21:41:21.405Z,100513.75
2024-05-09T21:43:53.057Z,100518.77
2024-05-09T21:46:24.240Z,100518.82
2024-05-09T21:48:56.024Z,100517.27
2024-05-09T21:51:26.370Z,100517.63
2024-05-09T21:53:58.858Z,100517.45
2024-05-09T21:56:29.083Z,100519.02
2024-05-09T21:59:01.721Z,100518.19
2024-05-09T22:01:34.072Z,100520.55
2024-05-09T22:04:06.080Z,100520.63
2024-05-09T22:06:36.776Z,100519.48
2024-05-09T22:09:08.569Z,100518.00
2024-05-09T22:11:39.604Z,100518.74
2024-05-09T22:14:11.665Z,100522.14
2024-05-09T22:16:42.226Z,100519.29
2024-05-09T22:19:13.954Z,100516.93
2024-05-09T22:21:44.360Z,100513.31
2024-05-09T22:24:16.238Z,100516.12
2024-05-09T22:26:46.591Z,100515.61
2024-05-09T22:29:18.327Z,100513.23
2024-05-09T22:31:48.672Z,100510.33
2024-05-09T22:34:20.569Z,100510.90
2024-05-09T22:36:51.239Z,100512.55
2024-05-09T22:39:26.104Z,100515.02
2024-05-09T22:41:58.745Z,100514.69
2024-05-09T22:44:29.207Z,100517.52
2024-05-09T22:47:01.104Z,100516.42
2024-05-09T22:49:31.458Z,100514.97
2024-05-09T22:52:02.956Z,100514.52
2024-05-09T22:54:33.414Z,100516.30
2024-05-09T22:57:05.553Z,100516.02
2024-05-09T22:59:36.082Z,100517.10
2024-05-09T23:02:07.746Z,100516.14
2024-05-09T23:04:38.800Z,100513.28
2024-05-09T23:07:10.768Z,100513.34
2024-05-09T23:09:41.072Z,100513.89
2024-05-09T23:12:17.619Z,100507.66
2024-05-09T23:14:49.079Z,100509.39
2024-05-09T23:17:19.578Z,100506.24
2024-05-09T23:19:51.159Z,100507.63
2024-05-09T23:22:22.024Z,100504.70
2024-05-09T23:24:53.777Z,100505.56
2024-05-09T23:27:24.067Z,100506.08
2024-05-09T23:29:56.034Z,100509.54
2024-05-09T23:32:26.336Z,100507.32
2024-05-09T23:34:58.262Z,100506.33
2024-05-09T23:37:29.233Z,100504.95
2024-05-09T23:40:00.990Z,100503.92
2024-05-09T23:42:31.334Z,100504.80
2024-05-09T23:45:03.689Z,100504.66
2024-05-09T23:47:34.968Z,100505.72
2024-05-09T23:50:13.756Z,100507.13
2024-05-09T23:52:48.377Z,100502.67
2024-05-09T23:55:21.493Z,100500.31
2024-05-09T23:57:53.071Z,100502.90
